WXM80 ListenWXM80 Stop

You find our weather info also at:

UK Metoffice

WeatherCloud

Weather Underground

Northeastern Weather Network

AWEKAS

Citizen Weather Observer Program (CWOP)

HAMweather, WeatherForYou, PWS Weather


Weather Underground History page Text

Daily Summary for September 3, 2017 Units:  Both    English   Metric
« Previous Day
Next Day »
Daily Weekly Monthly Yearly Custom
  High: Low: Average:
Temperature: 70.1 °F /  21.2 °C 57.2 °F /  14 °C 63 °F /  17.2 °C
Dew Point: 69.5 °F /  20.8 °C 55.6 °F /  13.1 °C 60.8 °F /  16 °C
Humidity: 98 % 81 % 93 %
Wind Speed: 7.3 mph /  11.7 km/h - 1.5 mph /  2.4 km/h
Wind Gust: 19.6 mph /  31.5 km/h - -
Wind:- - South
Pressure: 30.08 in /  1018.5 hPa 29.77 in /  1008 hPa -
Precipitation: 0.46 in /  11.68 mm    
Historical Graphs
 
 
Tabular Data for September 3, 2017
Time Temperature Dew Point Pressure Wind Wind Speed Wind Gust Humidity Rainfall Rate (Hourly)
00:02 57.7 °F /  14.3 °C 55.7 °F /  13.2 °C 30.08 in /  1018.5 hPa Calm   1.2 mph /  1.9 km/h 93 % 0.14 in /  3.56 mm
00:07 57.7 °F /  14.3 °C 55.7 °F /  13.2 °C 30.08 in /  1018.5 hPa ESE 0.1 mph /  0.2 km/h 1.2 mph /  1.9 km/h 93 % 0.15 in /  3.81 mm
00:12 57.6 °F /  14.2 °C 55.6 °F /  13.1 °C 30.07 in /  1018.2 hPa ESE 0.5 mph /  0.8 km/h 2.3 mph /  3.7 km/h 93 % 0.19 in /  4.83 mm
00:17 57.6 °F /  14.2 °C 55.9 °F /  13.3 °C 30.06 in /  1017.8 hPa ESE 1.1 mph /  1.8 km/h 2.3 mph /  3.7 km/h 94 % 0.02 in /  0.51 mm
00:22 57.6 °F /  14.2 °C 55.9 °F /  13.3 °C 30.07 in /  1018.2 hPa ESE 0.8 mph /  1.3 km/h 2.3 mph /  3.7 km/h 94 % 0.04 in /  1.02 mm
00:27 57.5 °F /  14.2 °C 55.8 °F /  13.2 °C 30.06 in /  1017.8 hPa SE 0.8 mph /  1.3 km/h 1.2 mph /  1.9 km/h 94 % 0.04 in /  1.02 mm
00:32 57.4 °F /  14.1 °C 55.7 °F /  13.2 °C 30.06 in /  1017.8 hPa ESE 0.6 mph /  1 km/h 2.3 mph /  3.7 km/h 94 % 0.04 in /  1.02 mm
00:37 57.4 °F /  14.1 °C 55.7 °F /  13.2 °C 30.06 in /  1017.8 hPa ESE 1.5 mph /  2.4 km/h 4.0 mph /  6.4 km/h 94 % 0.04 in /  1.02 mm
00:42 57.3 °F /  14.1 °C 55.6 °F /  13.1 °C 30.05 in /  1017.5 hPa ESE 1.5 mph /  2.4 km/h 2.3 mph /  3.7 km/h 94 % 0.03 in /  0.76 mm
00:47 57.3 °F /  14.1 °C 55.9 °F /  13.3 °C 30.05 in /  1017.5 hPa ESE 1.8 mph /  2.9 km/h 2.3 mph /  3.7 km/h 95 % 0.02 in /  0.51 mm
00:52 57.2 °F /  14 °C 55.8 °F /  13.2 °C 30.05 in /  1017.5 hPa ESE 1.5 mph /  2.4 km/h 3.5 mph /  5.6 km/h 95 % 0.02 in /  0.51 mm
00:57 57.2 °F /  14 °C 55.8 °F /  13.2 °C 30.05 in /  1017.5 hPa ESE 1.7 mph /  2.7 km/h 4.0 mph /  6.4 km/h 95 % 0.00 in /  0 mm
01:02 57.2 °F /  14 °C 55.8 °F /  13.2 °C 30.05 in /  1017.5 hPa ESE 1.8 mph /  2.9 km/h 3.0 mph /  4.8 km/h 95 % 0.21 in /  5.33 mm
01:07 57.2 °F /  14 °C 55.8 °F /  13.2 °C 30.04 in /  1017.2 hPa ESE 1.7 mph /  2.7 km/h 3.5 mph /  5.6 km/h 95 % 0.20 in /  5.08 mm
01:12 57.2 °F /  14 °C 55.8 °F /  13.2 °C 30.03 in /  1016.8 hPa ESE 1.2 mph /  1.9 km/h 2.3 mph /  3.7 km/h 95 % 0.16 in /  4.06 mm
01:17 57.2 °F /  14 °C 55.8 °F /  13.2 °C 30.03 in /  1016.8 hPa SE 2.1 mph /  3.4 km/h 3.5 mph /  5.6 km/h 95 % 0.13 in /  3.3 mm
01:22 57.3 °F /  14.1 °C 56.2 °F /  13.4 °C 30.03 in /  1016.8 hPa ESE 1.5 mph /  2.4 km/h 3.5 mph /  5.6 km/h 96 % 0.10 in /  2.54 mm
01:27 57.3 °F /  14.1 °C 56.2 °F /  13.4 °C 30.03 in /  1016.8 hPa ESE 0.8 mph /  1.3 km/h 2.3 mph /  3.7 km/h 96 % 0.11 in /  2.79 mm
01:32 57.4 °F /  14.1 °C 56.3 °F /  13.5 °C 30.02 in /  1016.5 hPa ESE 0.9 mph /  1.4 km/h 3.5 mph /  5.6 km/h 96 % 0.10 in /  2.54 mm
01:37 57.5 °F /  14.2 °C 56.4 °F /  13.6 °C 30.02 in /  1016.5 hPa ESE 0.5 mph /  0.8 km/h 2.3 mph /  3.7 km/h 96 % 0.10 in /  2.54 mm
01:42 57.6 °F /  14.2 °C 56.5 °F /  13.6 °C 30.02 in /  1016.5 hPa Calm   1.2 mph /  1.9 km/h 96 % 0.11 in /  2.79 mm
01:47 57.6 °F /  14.2 °C 56.5 °F /  13.6 °C 30.02 in /  1016.5 hPa Calm   1.2 mph /  1.9 km/h 96 % 0.10 in /  2.54 mm
01:52 57.6 °F /  14.2 °C 56.5 °F /  13.6 °C 30.02 in /  1016.5 hPa ESE 2.0 mph /  3.2 km/h 3.5 mph /  5.6 km/h 96 % 0.09 in /  2.29 mm
01:57 57.7 °F /  14.3 °C 56.6 °F /  13.7 °C 30.02 in /  1016.5 hPa ESE 1.7 mph /  2.7 km/h 3.5 mph /  5.6 km/h 96 % 0.08 in /  2.03 mm
02:02 57.8 °F /  14.3 °C 56.7 °F /  13.7 °C 30.01 in /  1016.1 hPa East 1.4 mph /  2.3 km/h 3.5 mph /  5.6 km/h 96 % 0.11 in /  2.79 mm
02:07 57.9 °F /  14.4 °C 56.8 °F /  13.8 °C 30.01 in /  1016.1 hPa ESE 0.7 mph /  1.1 km/h 2.3 mph /  3.7 km/h 96 % 0.10 in /  2.54 mm
02:12 57.9 °F /  14.4 °C 56.8 °F /  13.8 °C 30.01 in /  1016.1 hPa East 1.3 mph /  2.1 km/h 3.5 mph /  5.6 km/h 96 % 0.09 in /  2.29 mm
02:17 58.0 °F /  14.4 °C 56.9 °F /  13.8 °C 30.00 in /  1015.8 hPa East 1.4 mph /  2.3 km/h 2.3 mph /  3.7 km/h 96 % 0.08 in /  2.03 mm
02:22 58.1 °F /  14.5 °C 57.3 °F /  14.1 °C 30.00 in /  1015.8 hPa ESE 1.2 mph /  1.9 km/h 3.5 mph /  5.6 km/h 97 % 0.08 in /  2.03 mm
02:27 58.1 °F /  14.5 °C 57.3 °F /  14.1 °C 30.00 in /  1015.8 hPa East 1.0 mph /  1.6 km/h 1.2 mph /  1.9 km/h 97 % 0.07 in /  1.78 mm
02:32 58.1 °F /  14.5 °C 57.3 °F /  14.1 °C 29.99 in /  1015.5 hPa East 0.6 mph /  1 km/h 2.3 mph /  3.7 km/h 97 % 0.07 in /  1.78 mm
02:37 58.1 °F /  14.5 °C 57.3 °F /  14.1 °C 29.99 in /  1015.5 hPa ESE 2.0 mph /  3.2 km/h 3.5 mph /  5.6 km/h 97 % 0.06 in /  1.52 mm
02:43 58.2 °F /  14.6 °C 57.4 °F /  14.1 °C 29.99 in /  1015.5 hPa ESE 0.5 mph /  0.8 km/h 2.3 mph /  3.7 km/h 97 % 0.05 in /  1.27 mm
02:48 58.2 °F /  14.6 °C 57.4 °F /  14.1 °C 29.99 in /  1015.5 hPa ESE 1.2 mph /  1.9 km/h 3.5 mph /  5.6 km/h 97 % 0.06 in /  1.52 mm
02:53 58.2 °F /  14.6 °C 57.4 °F /  14.1 °C 29.99 in /  1015.5 hPa ENE 1.8 mph /  2.9 km/h 3.5 mph /  5.6 km/h 97 % 0.05 in /  1.27 mm
02:58 58.2 °F /  14.6 °C 57.4 °F /  14.1 °C 29.99 in /  1015.5 hPa East 1.5 mph /  2.4 km/h 3.5 mph /  5.6 km/h 97 % 0.04 in /  1.02 mm
03:03 58.1 °F /  14.5 °C 57.3 °F /  14.1 °C 29.99 in /  1015.5 hPa East 0.7 mph /  1.1 km/h 3.5 mph /  5.6 km/h 97 % 0.01 in /  0.25 mm
03:08 58.2 °F /  14.6 °C 57.4 °F /  14.1 °C 29.99 in /  1015.5 hPa SE 1.2 mph /  1.9 km/h 3.5 mph /  5.6 km/h 97 % 0.01 in /  0.25 mm
03:13 58.2 °F /  14.6 °C 57.4 °F /  14.1 °C 29.99 in /  1015.5 hPa ESE 0.8 mph /  1.3 km/h 2.3 mph /  3.7 km/h 97 % 0.01 in /  0.25 mm
03:18 58.2 °F /  14.6 °C 57.4 °F /  14.1 °C 29.98 in /  1015.1 hPa ESE 0.6 mph /  1 km/h 2.3 mph /  3.7 km/h 97 % 0.01 in /  0.25 mm
03:23 58.2 °F /  14.6 °C 57.4 °F /  14.1 °C 29.97 in /  1014.8 hPa ESE 1.4 mph /  2.3 km/h 2.3 mph /  3.7 km/h 97 % 0.01 in /  0.25 mm
03:28 58.2 °F /  14.6 °C 57.4 °F /  14.1 °C 29.97 in /  1014.8 hPa East 1.2 mph /  1.9 km/h 3.5 mph /  5.6 km/h 97 % 0.01 in /  0.25 mm
03:33 58.3 °F /  14.6 °C 57.5 °F /  14.2 °C 29.97 in /  1014.8 hPa East 1.1 mph /  1.8 km/h 3.5 mph /  5.6 km/h 97 % 0.01 in /  0.25 mm
03:38 58.3 °F /  14.6 °C 57.5 °F /  14.2 °C 29.97 in /  1014.8 hPa East 1.8 mph /  2.9 km/h 3.5 mph /  5.6 km/h 97 % 0.01 in /  0.25 mm
03:43 58.3 °F /  14.6 °C 57.5 °F /  14.2 °C 29.97 in /  1014.8 hPa East 1.1 mph /  1.8 km/h 2.3 mph /  3.7 km/h 97 % 0.01 in /  0.25 mm
03:48 58.4 °F /  14.7 °C 57.6 °F /  14.2 °C 29.97 in /  1014.8 hPa East 2.3 mph /  3.7 km/h 3.5 mph /  5.6 km/h 97 % 0.00 in /  0 mm
03:53 58.4 °F /  14.7 °C 57.6 °F /  14.2 °C 29.96 in /  1014.4 hPa ESE 1.1 mph /  1.8 km/h 3.5 mph /  5.6 km/h 97 % 0.00 in /  0 mm
03:58 58.4 °F /  14.7 °C 57.6 °F /  14.2 °C 29.96 in /  1014.4 hPa ESE 1.0 mph /  1.6 km/h 2.3 mph /  3.7 km/h 97 % 0.00 in /  0 mm
04:00 58.4 °F /  14.7 °C 57.6 °F /  14.2 °C 29.96 in /  1014.4 hPa East 1.7 mph /  2.7 km/h 3.5 mph /  5.6 km/h 97 % 0.00 in /  0 mm
04:05 58.4 °F /  14.7 °C 57.6 °F /  14.2 °C 29.96 in /  1014.4 hPa East 1.2 mph /  1.9 km/h 3.5 mph /  5.6 km/h 97 % 0.00 in /  0 mm
04:10 58.5 °F /  14.7 °C 57.7 °F /  14.3 °C 29.95 in /  1014.1 hPa ESE 2.2 mph /  3.5 km/h 4.6 mph /  7.4 km/h 97 % 0.01 in /  0.25 mm
04:15 58.5 °F /  14.7 °C 57.7 °F /  14.3 °C 29.95 in /  1014.1 hPa East 1.1 mph /  1.8 km/h 2.3 mph /  3.7 km/h 97 % 0.01 in /  0.25 mm
04:20 58.6 °F /  14.8 °C 57.8 °F /  14.3 °C 29.95 in /  1014.1 hPa East 0.5 mph /  0.8 km/h 2.3 mph /  3.7 km/h 97 % 0.02 in /  0.51 mm
04:25 58.6 °F /  14.8 °C 57.8 °F /  14.3 °C 29.95 in /  1014.1 hPa East 1.6 mph /  2.6 km/h 3.5 mph /  5.6 km/h 97 % 0.03 in /  0.76 mm
04:30 58.6 °F /  14.8 °C 57.8 °F /  14.3 °C 29.94 in /  1013.8 hPa East 1.6 mph /  2.6 km/h 3.5 mph /  5.6 km/h 97 % 0.03 in /  0.76 mm
04:35 58.7 °F /  14.8 °C 57.9 °F /  14.4 °C 29.94 in /  1013.8 hPa ESE 0.6 mph /  1 km/h 1.2 mph /  1.9 km/h 97 % 0.03 in /  0.76 mm
04:40 58.7 °F /  14.8 °C 57.9 °F /  14.4 °C 29.94 in /  1013.8 hPa ESE 1.1 mph /  1.8 km/h 2.3 mph /  3.7 km/h 97 % 0.03 in /  0.76 mm
04:45 58.7 °F /  14.8 °C 57.9 °F /  14.4 °C 29.94 in /  1013.8 hPa ESE 1.0 mph /  1.6 km/h 7.0 mph /  11.3 km/h 97 % 0.00 in /  0 mm
04:50 58.7 °F /  14.8 °C 57.9 °F /  14.4 °C 29.94 in /  1013.8 hPa ESE 1.0 mph /  1.6 km/h 5.0 mph /  8 km/h 97 % 0.01 in /  0.25 mm
04:55 58.7 °F /  14.8 °C 57.9 °F /  14.4 °C 29.94 in /  1013.8 hPa Calm   2.0 mph /  3.2 km/h 97 % 0.00 in /  0 mm
05:00 58.6 °F /  14.8 °C 57.8 °F /  14.3 °C 29.94 in /  1013.8 hPa ESE 2.9 mph /  4.7 km/h 5.0 mph /  8 km/h 97 % 0.07 in /  1.78 mm
05:01 58.6 °F /  14.8 °C 57.8 °F /  14.3 °C 29.94 in /  1013.8 hPa ESE 2.9 mph /  4.7 km/h 5.0 mph /  8 km/h 97 % 0.07 in /  1.78 mm
05:06 58.6 °F /  14.8 °C 57.8 °F /  14.3 °C 29.94 in /  1013.8 hPa ESE 1.0 mph /  1.6 km/h 3.5 mph /  5.6 km/h 97 % 0.07 in /  1.78 mm
05:11 58.5 °F /  14.7 °C 57.7 °F /  14.3 °C 29.94 in /  1013.8 hPa SE 2.1 mph /  3.4 km/h 3.5 mph /  5.6 km/h 97 % 0.07 in /  1.78 mm
05:16 58.4 °F /  14.7 °C 57.6 °F /  14.2 °C 29.94 in /  1013.8 hPa ESE 0.9 mph /  1.4 km/h 3.5 mph /  5.6 km/h 97 % 0.07 in /  1.78 mm
05:21 58.4 °F /  14.7 °C 57.6 °F /  14.2 °C 29.95 in /  1014.1 hPa East 1.0 mph /  1.6 km/h 2.3 mph /  3.7 km/h 97 % 0.05 in /  1.27 mm
05:26 58.3 °F /  14.6 °C 57.5 °F /  14.2 °C 29.95 in /  1014.1 hPa East 0.5 mph /  0.8 km/h 1.2 mph /  1.9 km/h 97 % 0.05 in /  1.27 mm
05:31 58.3 °F /  14.6 °C 57.5 °F /  14.2 °C 29.95 in /  1014.1 hPa Calm   2.3 mph /  3.7 km/h 97 % 0.05 in /  1.27 mm
05:36 58.3 °F /  14.6 °C 57.5 °F /  14.2 °C 29.96 in /  1014.4 hPa East 0.1 mph /  0.2 km/h   97 % 0.05 in /  1.27 mm
05:41 58.3 °F /  14.6 °C 57.5 °F /  14.2 °C 29.95 in /  1014.1 hPa East 0.2 mph /  0.3 km/h 2.3 mph /  3.7 km/h 97 % 0.05 in /  1.27 mm
05:46 58.3 °F /  14.6 °C 57.5 °F /  14.2 °C 29.95 in /  1014.1 hPa East 0.2 mph /  0.3 km/h 1.2 mph /  1.9 km/h 97 % 0.04 in /  1.02 mm
05:52 58.3 °F /  14.6 °C 57.5 °F /  14.2 °C 29.95 in /  1014.1 hPa ESE 0.5 mph /  0.8 km/h 1.2 mph /  1.9 km/h 97 % 0.03 in /  0.76 mm
05:57 58.4 °F /  14.7 °C 57.6 °F /  14.2 °C 29.94 in /  1013.8 hPa ESE 1.2 mph /  1.9 km/h 2.3 mph /  3.7 km/h 97 % 0.01 in /  0.25 mm
06:02 58.4 °F /  14.7 °C 57.6 °F /  14.2 °C 29.94 in /  1013.8 hPa ESE 1.0 mph /  1.6 km/h 2.3 mph /  3.7 km/h 97 % 0.01 in /  0.25 mm
06:07 58.4 °F /  14.7 °C 57.6 °F /  14.2 °C 29.94 in /  1013.8 hPa ESE 1.0 mph /  1.6 km/h 2.3 mph /  3.7 km/h 97 % 0.00 in /  0 mm
06:12 58.4 °F /  14.7 °C 57.6 °F /  14.2 °C 29.93 in /  1013.4 hPa East 1.0 mph /  1.6 km/h 2.3 mph /  3.7 km/h 97 % 0.01 in /  0.25 mm
06:17 58.4 °F /  14.7 °C 57.6 °F /  14.2 °C 29.93 in /  1013.4 hPa East 1.0 mph /  1.6 km/h 2.3 mph /  3.7 km/h 97 % 0.01 in /  0.25 mm
06:22 58.4 °F /  14.7 °C 57.6 °F /  14.2 °C 29.93 in /  1013.4 hPa East 0.2 mph /  0.3 km/h 2.3 mph /  3.7 km/h 97 % 0.01 in /  0.25 mm
06:27 58.5 °F /  14.7 °C 57.7 °F /  14.3 °C 29.93 in /  1013.4 hPa Calm   1.2 mph /  1.9 km/h 97 % 0.01 in /  0.25 mm
06:32 58.5 °F /  14.7 °C 57.7 °F /  14.3 °C 29.93 in /  1013.4 hPa East 1.5 mph /  2.4 km/h 2.3 mph /  3.7 km/h 97 % 0.01 in /  0.25 mm
06:37 58.5 °F /  14.7 °C 57.7 °F /  14.3 °C 29.93 in /  1013.4 hPa ESE 0.6 mph /  1 km/h 2.0 mph /  3.2 km/h 97 % 0.01 in /  0.25 mm
06:43 58.5 °F /  14.7 °C 57.7 °F /  14.3 °C 29.94 in /  1013.8 hPa Calm   1.2 mph /  1.9 km/h 97 % 0.01 in /  0.25 mm
06:48 58.5 °F /  14.7 °C 57.7 °F /  14.3 °C 29.93 in /  1013.4 hPa East 1.8 mph /  2.9 km/h 3.5 mph /  5.6 km/h 97 % 0.01 in /  0.25 mm
06:53 58.6 °F /  14.8 °C 57.8 °F /  14.3 °C 29.93 in /  1013.4 hPa Calm   1.2 mph /  1.9 km/h 97 % 0.01 in /  0.25 mm
06:58 58.6 °F /  14.8 °C 57.8 °F /  14.3 °C 29.93 in /  1013.4 hPa East 0.4 mph /  0.6 km/h 3.5 mph /  5.6 km/h 97 % 0.01 in /  0.25 mm
07:03 58.6 °F /  14.8 °C 57.8 °F /  14.3 °C 29.93 in /  1013.4 hPa East 0.1 mph /  0.2 km/h 2.3 mph /  3.7 km/h 97 % 0.01 in /  0.25 mm
07:08 58.7 °F /  14.8 °C 57.9 °F /  14.4 °C 29.93 in /  1013.4 hPa East 0.3 mph /  0.5 km/h 1.2 mph /  1.9 km/h 97 % 0.01 in /  0.25 mm
07:13 58.8 °F /  14.9 °C 58.0 °F /  14.4 °C 29.92 in /  1013.1 hPa ESE 0.9 mph /  1.4 km/h 3.5 mph /  5.6 km/h 97 % 0.00 in /  0 mm
07:18 58.9 °F /  14.9 °C 58.3 °F /  14.6 °C 29.92 in /  1013.1 hPa ESE 0.8 mph /  1.3 km/h 2.3 mph /  3.7 km/h 98 % 0.00 in /  0 mm
07:23 58.9 °F /  14.9 °C 58.3 °F /  14.6 °C 29.92 in /  1013.1 hPa ESE 0.8 mph /  1.3 km/h 2.3 mph /  3.7 km/h 98 % 0.00 in /  0 mm
07:28 59.1 °F /  15.1 °C 58.5 °F /  14.7 °C 29.92 in /  1013.1 hPa East 1.1 mph /  1.8 km/h 3.5 mph /  5.6 km/h 98 % 0.00 in /  0 mm
07:33 59.1 °F /  15.1 °C 58.5 °F /  14.7 °C 29.92 in /  1013.1 hPa East 0.3 mph /  0.5 km/h 1.2 mph /  1.9 km/h 98 % 0.00 in /  0 mm
07:38 59.2 °F /  15.1 °C 58.3 °F /  14.6 °C 29.92 in /  1013.1 hPa East 0.9 mph /  1.4 km/h 2.3 mph /  3.7 km/h 97 % 0.00 in /  0 mm
07:43 59.3 °F /  15.2 °C 58.4 °F /  14.7 °C 29.92 in /  1013.1 hPa SE 1.7 mph /  2.7 km/h 4.0 mph /  6.4 km/h 97 % 0.00 in /  0 mm
07:49 59.4 °F /  15.2 °C 58.5 °F /  14.7 °C 29.91 in /  1012.8 hPa ESE 0.9 mph /  1.4 km/h 2.0 mph /  3.2 km/h 97 % 0.00 in /  0 mm
07:54 59.4 °F /  15.2 °C 58.5 °F /  14.7 °C 29.91 in /  1012.8 hPa ESE 0.7 mph /  1.1 km/h 2.3 mph /  3.7 km/h 97 % 0.00 in /  0 mm
07:59 59.5 °F /  15.3 °C 58.6 °F /  14.8 °C 29.91 in /  1012.8 hPa ESE 0.2 mph /  0.3 km/h 2.3 mph /  3.7 km/h 97 % 0.00 in /  0 mm
08:04 59.6 °F /  15.3 °C 59.0 °F /  15 °C 29.91 in /  1012.8 hPa East 2.0 mph /  3.2 km/h 2.3 mph /  3.7 km/h 98 % 0.00 in /  0 mm
08:09 59.6 °F /  15.3 °C 59.0 °F /  15 °C 29.91 in /  1012.8 hPa ENE 0.4 mph /  0.6 km/h 2.3 mph /  3.7 km/h 98 % 0.00 in /  0 mm
08:14 59.8 °F /  15.4 °C 59.2 °F /  15.1 °C 29.90 in /  1012.4 hPa ESE 0.9 mph /  1.4 km/h 2.3 mph /  3.7 km/h 98 % 0.00 in /  0 mm
08:19 59.8 °F /  15.4 °C 59.2 °F /  15.1 °C 29.90 in /  1012.4 hPa ESE 1.5 mph /  2.4 km/h 3.5 mph /  5.6 km/h 98 % 0.00 in /  0 mm
08:24 59.9 °F /  15.5 °C 59.3 °F /  15.2 °C 29.90 in /  1012.4 hPa ESE 0.8 mph /  1.3 km/h 2.3 mph /  3.7 km/h 98 % 0.00 in /  0 mm
08:29 60.0 °F /  15.6 °C 59.4 °F /  15.2 °C 29.90 in /  1012.4 hPa ESE 0.3 mph /  0.5 km/h 2.3 mph /  3.7 km/h 98 % 0.00 in /  0 mm
08:34 60.0 °F /  15.6 °C 59.4 °F /  15.2 °C 29.90 in /  1012.4 hPa SE 1.7 mph /  2.7 km/h 3.5 mph /  5.6 km/h 98 % 0.00 in /  0 mm
08:39 60.2 °F /  15.7 °C 59.6 °F /  15.3 °C 29.90 in /  1012.4 hPa ESE 1.5 mph /  2.4 km/h 3.5 mph /  5.6 km/h 98 % 0.00 in /  0 mm
08:44 60.3 °F /  15.7 °C 59.7 °F /  15.4 °C 29.89 in /  1012.1 hPa SE 1.3 mph /  2.1 km/h 5.0 mph /  8 km/h 98 % 0.00 in /  0 mm
08:49 60.4 °F /  15.8 °C 59.8 °F /  15.4 °C 29.90 in /  1012.4 hPa East 1.0 mph /  1.6 km/h 2.3 mph /  3.7 km/h 98 % 0.00 in /  0 mm
08:54 60.5 °F /  15.8 °C 59.9 °F /  15.5 °C 29.90 in /  1012.4 hPa Calm   3.5 mph /  5.6 km/h 98 % 0.00 in /  0 mm
08:59 60.5 °F /  15.8 °C 59.9 °F /  15.5 °C 29.89 in /  1012.1 hPa ESE 1.2 mph /  1.9 km/h 3.5 mph /  5.6 km/h 98 % 0.00 in /  0 mm
09:04 60.6 °F /  15.9 °C 60.0 °F /  15.6 °C 29.89 in /  1012.1 hPa ESE 1.3 mph /  2.1 km/h 2.3 mph /  3.7 km/h 98 % 0.00 in /  0 mm
09:09 60.7 °F /  15.9 °C 60.1 °F /  15.6 °C 29.89 in /  1012.1 hPa East 1.0 mph /  1.6 km/h 3.5 mph /  5.6 km/h 98 % 0.00 in /  0 mm
09:14 60.7 °F /  15.9 °C 60.1 °F /  15.6 °C 29.88 in /  1011.7 hPa ESE 0.8 mph /  1.3 km/h 3.0 mph /  4.8 km/h 98 % 0.00 in /  0 mm
09:19 60.9 °F /  16.1 °C 60.3 °F /  15.7 °C 29.88 in /  1011.7 hPa East 1.7 mph /  2.7 km/h 4.6 mph /  7.4 km/h 98 % 0.00 in /  0 mm
09:24 61.0 °F /  16.1 °C 60.4 °F /  15.8 °C 29.88 in /  1011.7 hPa ESE 1.4 mph /  2.3 km/h 3.5 mph /  5.6 km/h 98 % 0.00 in /  0 mm
09:29 61.1 °F /  16.2 °C 60.5 °F /  15.8 °C 29.88 in /  1011.7 hPa ESE 0.9 mph /  1.4 km/h 6.9 mph /  11.1 km/h 98 % 0.00 in /  0 mm
09:34 61.2 °F /  16.2 °C 60.6 °F /  15.9 °C 29.88 in /  1011.7 hPa ESE 1.9 mph /  3.1 km/h 4.0 mph /  6.4 km/h 98 % 0.00 in /  0 mm
09:39 61.4 °F /  16.3 °C 60.8 °F /  16 °C 29.87 in /  1011.4 hPa ESE 1.4 mph /  2.3 km/h 3.5 mph /  5.6 km/h 98 % 0.00 in /  0 mm
09:44 61.6 °F /  16.4 °C 61.0 °F /  16.1 °C 29.87 in /  1011.4 hPa SE 1.5 mph /  2.4 km/h 5.8 mph /  9.3 km/h 98 % 0.00 in /  0 mm
09:49 61.7 °F /  16.5 °C 61.1 °F /  16.2 °C 29.87 in /  1011.4 hPa ESE 0.9 mph /  1.4 km/h 3.5 mph /  5.6 km/h 98 % 0.00 in /  0 mm
09:54 61.7 °F /  16.5 °C 61.1 °F /  16.2 °C 29.86 in /  1011.1 hPa ESE 0.9 mph /  1.4 km/h 2.3 mph /  3.7 km/h 98 % 0.00 in /  0 mm
09:59 61.8 °F /  16.6 °C 61.2 °F /  16.2 °C 29.86 in /  1011.1 hPa ESE 0.7 mph /  1.1 km/h 2.3 mph /  3.7 km/h 98 % 0.00 in /  0 mm
10:04 61.9 °F /  16.6 °C 61.3 °F /  16.3 °C 29.86 in /  1011.1 hPa East 0.7 mph /  1.1 km/h 3.5 mph /  5.6 km/h 98 % 0.00 in /  0 mm
10:09 62.0 °F /  16.7 °C 61.4 °F /  16.3 °C 29.86 in /  1011.1 hPa ESE 1.5 mph /  2.4 km/h 3.5 mph /  5.6 km/h 98 % 0.00 in /  0 mm
10:14 62.1 °F /  16.7 °C 61.5 °F /  16.4 °C 29.85 in /  1010.7 hPa SE 1.3 mph /  2.1 km/h 3.5 mph /  5.6 km/h 98 % 0.00 in /  0 mm
10:19 62.3 °F /  16.8 °C 61.7 °F /  16.5 °C 29.85 in /  1010.7 hPa ESE 2.8 mph /  4.5 km/h 6.9 mph /  11.1 km/h 98 % 0.00 in /  0 mm
10:24 62.3 °F /  16.8 °C 61.7 °F /  16.5 °C 29.85 in /  1010.7 hPa ESE 0.6 mph /  1 km/h 3.5 mph /  5.6 km/h 98 % 0.00 in /  0 mm
10:29 62.4 °F /  16.9 °C 61.8 °F /  16.6 °C 29.85 in /  1010.7 hPa ESE 1.0 mph /  1.6 km/h 3.5 mph /  5.6 km/h 98 % 0.01 in /  0.25 mm
10:34 62.6 °F /  17 °C 62.0 °F /  16.7 °C 29.84 in /  1010.4 hPa ESE 0.8 mph /  1.3 km/h 3.5 mph /  5.6 km/h 98 % 0.02 in /  0.51 mm
10:39 62.7 °F /  17.1 °C 62.1 °F /  16.7 °C 29.84 in /  1010.4 hPa ESE 0.5 mph /  0.8 km/h 1.2 mph /  1.9 km/h 98 % 0.02 in /  0.51 mm
10:44 62.8 °F /  17.1 °C 62.2 °F /  16.8 °C 29.83 in /  1010 hPa ESE 0.9 mph /  1.4 km/h 2.3 mph /  3.7 km/h 98 % 0.03 in /  0.76 mm
10:49 62.9 °F /  17.2 °C 62.3 °F /  16.8 °C 29.83 in /  1010 hPa ESE 1.0 mph /  1.6 km/h 2.3 mph /  3.7 km/h 98 % 0.03 in /  0.76 mm
10:54 63.0 °F /  17.2 °C 62.4 °F /  16.9 °C 29.83 in /  1010 hPa ESE 0.4 mph /  0.6 km/h 2.3 mph /  3.7 km/h 98 % 0.03 in /  0.76 mm
10:59 63.1 °F /  17.3 °C 62.5 °F /  16.9 °C 29.83 in /  1010 hPa ESE 1.2 mph /  1.9 km/h 2.3 mph /  3.7 km/h 98 % 0.03 in /  0.76 mm
11:04 63.2 °F /  17.3 °C 62.6 °F /  17 °C 29.83 in /  1010 hPa ESE 1.0 mph /  1.6 km/h 4.6 mph /  7.4 km/h 98 % 0.04 in /  1.02 mm
11:09 63.3 °F /  17.4 °C 62.7 °F /  17.1 °C 29.83 in /  1010 hPa ESE 1.0 mph /  1.6 km/h 2.0 mph /  3.2 km/h 98 % 0.04 in /  1.02 mm
11:14 63.5 °F /  17.5 °C 62.9 °F /  17.2 °C 29.82 in /  1009.7 hPa ESE 0.7 mph /  1.1 km/h 2.0 mph /  3.2 km/h 98 % 0.04 in /  1.02 mm
11:19 63.6 °F /  17.6 °C 63.0 °F /  17.2 °C 29.82 in /  1009.7 hPa Calm   1.2 mph /  1.9 km/h 98 % 0.04 in /  1.02 mm
11:24 63.7 °F /  17.6 °C 63.1 °F /  17.3 °C 29.82 in /  1009.7 hPa SE 2.0 mph /  3.2 km/h 6.0 mph /  9.7 km/h 98 % 0.04 in /  1.02 mm
11:29 63.9 °F /  17.7 °C 63.3 °F /  17.4 °C 29.82 in /  1009.7 hPa SE 1.5 mph /  2.4 km/h 3.5 mph /  5.6 km/h 98 % 0.03 in /  0.76 mm
11:34 64.1 °F /  17.8 °C 63.5 °F /  17.5 °C 29.82 in /  1009.7 hPa SE 2.0 mph /  3.2 km/h 3.5 mph /  5.6 km/h 98 % 0.02 in /  0.51 mm
11:39 64.4 °F /  18 °C 63.8 °F /  17.7 °C 29.82 in /  1009.7 hPa SE 1.1 mph /  1.8 km/h 3.5 mph /  5.6 km/h 98 % 0.02 in /  0.51 mm
11:45 64.7 °F /  18.2 °C 64.1 °F /  17.8 °C 29.82 in /  1009.7 hPa Calm   2.3 mph /  3.7 km/h 98 % 0.01 in /  0.25 mm
11:50 64.8 °F /  18.2 °C 64.2 °F /  17.9 °C 29.82 in /  1009.7 hPa Calm   3.5 mph /  5.6 km/h 98 % 0.01 in /  0.25 mm
11:55 64.9 °F /  18.3 °C 64.3 °F /  17.9 °C 29.81 in /  1009.4 hPa SE 1.0 mph /  1.6 km/h 3.0 mph /  4.8 km/h 98 % 0.01 in /  0.25 mm
12:00 65.1 °F /  18.4 °C 64.5 °F /  18.1 °C 29.81 in /  1009.4 hPa Calm     98 % 0.01 in /  0.25 mm
12:05 65.3 °F /  18.5 °C 64.7 °F /  18.2 °C 29.81 in /  1009.4 hPa Calm     98 % 0.00 in /  0 mm
12:10 65.5 °F /  18.6 °C 64.9 °F /  18.3 °C 29.81 in /  1009.4 hPa West 1.4 mph /  2.3 km/h 3.5 mph /  5.6 km/h 98 % 0.00 in /  0 mm
12:15 65.7 °F /  18.7 °C 65.1 °F /  18.4 °C 29.80 in /  1009 hPa West 0.4 mph /  0.6 km/h 2.3 mph /  3.7 km/h 98 % 0.00 in /  0 mm
12:20 65.9 °F /  18.8 °C 65.3 °F /  18.5 °C 29.80 in /  1009 hPa Calm   3.5 mph /  5.6 km/h 98 % 0.00 in /  0 mm
12:25 66.2 °F /  19 °C 65.6 °F /  18.7 °C 29.80 in /  1009 hPa WSW 1.0 mph /  1.6 km/h 3.5 mph /  5.6 km/h 98 % 0.00 in /  0 mm
12:30 66.5 °F /  19.2 °C 65.9 °F /  18.8 °C 29.80 in /  1009 hPa SW 0.9 mph /  1.4 km/h 2.3 mph /  3.7 km/h 98 % 0.00 in /  0 mm
12:35 66.7 °F /  19.3 °C 66.1 °F /  18.9 °C 29.79 in /  1008.7 hPa Calm     98 % 0.00 in /  0 mm
12:40 66.9 °F /  19.4 °C 66.3 °F /  19.1 °C 29.79 in /  1008.7 hPa Calm     98 % 0.00 in /  0 mm
12:46 67.2 °F /  19.6 °C 66.6 °F /  19.2 °C 29.79 in /  1008.7 hPa SSE 2.9 mph /  4.7 km/h 3.5 mph /  5.6 km/h 98 % 0.00 in /  0 mm
12:51 67.4 °F /  19.7 °C 66.8 °F /  19.3 °C 29.78 in /  1008.4 hPa Calm     98 % 0.00 in /  0 mm
12:56 67.9 °F /  19.9 °C 67.3 °F /  19.6 °C 29.78 in /  1008.4 hPa Calm   2.3 mph /  3.7 km/h 98 % 0.00 in /  0 mm
13:01 68.3 °F /  20.2 °C 67.7 °F /  19.8 °C 29.78 in /  1008.4 hPa Calm   1.2 mph /  1.9 km/h 98 % 0.00 in /  0 mm
13:06 68.7 °F /  20.4 °C 68.1 °F /  20.1 °C 29.78 in /  1008.4 hPa SSE 3.1 mph /  5 km/h 3.5 mph /  5.6 km/h 98 % 0.00 in /  0 mm
13:11 68.9 °F /  20.5 °C 68.3 °F /  20.2 °C 29.78 in /  1008.4 hPa SSE 0.2 mph /  0.3 km/h 4.6 mph /  7.4 km/h 98 % 0.00 in /  0 mm
13:16 69.2 °F /  20.7 °C 68.6 °F /  20.3 °C 29.78 in /  1008.4 hPa SSE 0.1 mph /  0.2 km/h 1.2 mph /  1.9 km/h 98 % 0.00 in /  0 mm
13:21 69.5 °F /  20.8 °C 68.9 °F /  20.5 °C 29.78 in /  1008.4 hPa SE 0.9 mph /  1.4 km/h 2.3 mph /  3.7 km/h 98 % 0.00 in /  0 mm
13:26 69.7 °F /  20.9 °C 69.1 °F /  20.6 °C 29.77 in /  1008 hPa South 0.8 mph /  1.3 km/h 3.5 mph /  5.6 km/h 98 % 0.00 in /  0 mm
13:31 69.9 °F /  21.1 °C 69.3 °F /  20.7 °C 29.77 in /  1008 hPa SSW 3.9 mph /  6.3 km/h 6.9 mph /  11.1 km/h 98 % 0.00 in /  0 mm
13:36 70.0 °F /  21.1 °C 69.4 °F /  20.8 °C 29.77 in /  1008 hPa SSW 4.8 mph /  7.7 km/h 9.2 mph /  14.8 km/h 98 % 0.00 in /  0 mm
13:41 70.1 °F /  21.2 °C 69.5 °F /  20.8 °C 29.77 in /  1008 hPa WNW 7.3 mph /  11.7 km/h 10.4 mph /  16.7 km/h 98 % 0.00 in /  0 mm
13:46 70.1 °F /  21.2 °C 69.5 °F /  20.8 °C 29.78 in /  1008.4 hPa SW 5.7 mph /  9.2 km/h 11.5 mph /  18.5 km/h 98 % 0.00 in /  0 mm
13:51 70.1 °F /  21.2 °C 69.2 °F /  20.7 °C 29.78 in /  1008.4 hPa WNW 6.4 mph /  10.3 km/h 19.6 mph /  31.5 km/h 97 % 0.00 in /  0 mm
13:56 70.0 °F /  21.1 °C 68.8 °F /  20.4 °C 29.78 in /  1008.4 hPa SW 6.4 mph /  10.3 km/h 10.4 mph /  16.7 km/h 96 % 0.00 in /  0 mm
14:01 69.8 °F /  21 °C 68.0 °F /  20 °C 29.78 in /  1008.4 hPa West 3.4 mph /  5.5 km/h 11.5 mph /  18.5 km/h 94 % 0.00 in /  0 mm
14:06 69.7 °F /  20.9 °C 67.6 °F /  19.8 °C 29.79 in /  1008.7 hPa WSW 5.9 mph /  9.5 km/h 10.4 mph /  16.7 km/h 93 % 0.00 in /  0 mm
14:11 69.4 °F /  20.8 °C 67.0 °F /  19.4 °C 29.79 in /  1008.7 hPa WSW 6.1 mph /  9.8 km/h 8.1 mph /  13 km/h 92 % 0.00 in /  0 mm
14:16 69.3 °F /  20.7 °C 66.9 °F /  19.4 °C 29.79 in /  1008.7 hPa West 3.5 mph /  5.6 km/h 6.9 mph /  11.1 km/h 92 % 0.00 in /  0 mm
14:21 69.1 °F /  20.6 °C 66.4 °F /  19.1 °C 29.79 in /  1008.7 hPa SW 2.1 mph /  3.4 km/h 6.0 mph /  9.7 km/h 91 % 0.00 in /  0 mm
14:26 68.9 °F /  20.5 °C 66.2 °F /  19 °C 29.79 in /  1008.7 hPa NW 4.2 mph /  6.8 km/h 8.1 mph /  13 km/h 91 % 0.00 in /  0 mm
14:31 68.7 °F /  20.4 °C 66.0 °F /  18.9 °C 29.79 in /  1008.7 hPa West 3.3 mph /  5.3 km/h 6.0 mph /  9.7 km/h 91 % 0.00 in /  0 mm
14:36 68.6 °F /  20.3 °C 65.9 °F /  18.8 °C 29.79 in /  1008.7 hPa SW 2.3 mph /  3.7 km/h 5.8 mph /  9.3 km/h 91 % 0.00 in /  0 mm
14:41 68.5 °F /  20.3 °C 65.4 °F /  18.6 °C 29.79 in /  1008.7 hPa WNW 4.8 mph /  7.7 km/h 8.1 mph /  13 km/h 90 % 0.00 in /  0 mm
14:46 68.2 °F /  20.1 °C 64.8 °F /  18.2 °C 29.79 in /  1008.7 hPa WSW 4.3 mph /  6.9 km/h 6.0 mph /  9.7 km/h 89 % 0.00 in /  0 mm
14:51 67.9 °F /  19.9 °C 64.5 °F /  18.1 °C 29.80 in /  1009 hPa WSW 1.6 mph /  2.6 km/h 3.5 mph /  5.6 km/h 89 % 0.00 in /  0 mm
14:56 67.5 °F /  19.7 °C 64.1 °F /  17.8 °C 29.80 in /  1009 hPa WSW 5.9 mph /  9.5 km/h 11.5 mph /  18.5 km/h 89 % 0.00 in /  0 mm
15:01 67.3 °F /  19.6 °C 63.9 °F /  17.7 °C 29.80 in /  1009 hPa West 4.0 mph /  6.4 km/h 8.0 mph /  12.9 km/h 89 % 0.00 in /  0 mm
15:06 67.1 °F /  19.5 °C 63.7 °F /  17.6 °C 29.80 in /  1009 hPa West 4.2 mph /  6.8 km/h 6.9 mph /  11.1 km/h 89 % 0.00 in /  0 mm
15:11 67.0 °F /  19.4 °C 63.6 °F /  17.6 °C 29.80 in /  1009 hPa West 4.2 mph /  6.8 km/h 6.9 mph /  11.1 km/h 89 % 0.00 in /  0 mm
15:16 66.8 °F /  19.3 °C 63.5 °F /  17.5 °C 29.80 in /  1009 hPa WNW 4.0 mph /  6.4 km/h 5.0 mph /  8 km/h 89 % 0.00 in /  0 mm
15:21 66.8 °F /  19.3 °C 63.5 °F /  17.5 °C 29.81 in /  1009.4 hPa SW 5.5 mph /  8.9 km/h 11.5 mph /  18.5 km/h 89 % 0.00 in /  0 mm
15:26 66.7 °F /  19.3 °C 63.4 °F /  17.4 °C 29.80 in /  1009 hPa West 4.3 mph /  6.9 km/h 12.7 mph /  20.4 km/h 89 % 0.00 in /  0 mm
15:31 66.7 °F /  19.3 °C 63.0 °F /  17.2 °C 29.80 in /  1009 hPa WNW 0.9 mph /  1.4 km/h 8.1 mph /  13 km/h 88 % 0.00 in /  0 mm
15:36 66.7 °F /  19.3 °C 63.0 °F /  17.2 °C 29.79 in /  1008.7 hPa SSW 4.4 mph /  7.1 km/h 8.1 mph /  13 km/h 88 % 0.00 in /  0 mm
15:42 66.9 °F /  19.4 °C 63.6 °F /  17.6 °C 29.79 in /  1008.7 hPa WNW 4.8 mph /  7.7 km/h 8.1 mph /  13 km/h 89 % 0.00 in /  0 mm
15:47 67.0 °F /  19.4 °C 63.3 °F /  17.4 °C 29.78 in /  1008.4 hPa WSW 3.1 mph /  5 km/h 8.1 mph /  13 km/h 88 % 0.00 in /  0 mm
15:52 67.1 °F /  19.5 °C 63.1 °F /  17.3 °C 29.78 in /  1008.4 hPa WNW 2.8 mph /  4.5 km/h 6.9 mph /  11.1 km/h 87 % 0.00 in /  0 mm
15:57 67.5 °F /  19.7 °C 64.1 °F /  17.8 °C 29.78 in /  1008.4 hPa WNW 2.9 mph /  4.7 km/h 11.5 mph /  18.5 km/h 89 % 0.00 in /  0 mm
16:02 67.5 °F /  19.7 °C 63.2 °F /  17.3 °C 29.78 in /  1008.4 hPa WNW 4.3 mph /  6.9 km/h 6.9 mph /  11.1 km/h 86 % 0.00 in /  0 mm
16:07 67.7 °F /  19.8 °C 63.4 °F /  17.4 °C 29.79 in /  1008.7 hPa West 1.4 mph /  2.3 km/h 8.1 mph /  13 km/h 86 % 0.00 in /  0 mm
16:12 67.8 °F /  19.9 °C 63.5 °F /  17.5 °C 29.79 in /  1008.7 hPa WSW 1.8 mph /  2.9 km/h 3.5 mph /  5.6 km/h 86 % 0.00 in /  0 mm
16:17 67.8 °F /  19.9 °C 63.5 °F /  17.5 °C 29.78 in /  1008.4 hPa Calm   1.2 mph /  1.9 km/h 86 % 0.00 in /  0 mm
16:22 67.8 °F /  19.9 °C 63.5 °F /  17.5 °C 29.78 in /  1008.4 hPa WSW 0.6 mph /  1 km/h 2.0 mph /  3.2 km/h 86 % 0.00 in /  0 mm
16:27 67.8 °F /  19.9 °C 63.5 °F /  17.5 °C 29.78 in /  1008.4 hPa WSW 2.6 mph /  4.2 km/h 5.8 mph /  9.3 km/h 86 % 0.00 in /  0 mm
16:32 67.7 °F /  19.8 °C 63.4 °F /  17.4 °C 29.78 in /  1008.4 hPa WSW 0.4 mph /  0.6 km/h 3.5 mph /  5.6 km/h 86 % 0.00 in /  0 mm
16:37 67.6 °F /  19.8 °C 63.3 °F /  17.4 °C 29.78 in /  1008.4 hPa WSW 1.9 mph /  3.1 km/h 9.2 mph /  14.8 km/h 86 % 0.00 in /  0 mm
16:42 67.7 °F /  19.8 °C 63.4 °F /  17.4 °C 29.78 in /  1008.4 hPa SW 3.8 mph /  6.1 km/h 8.0 mph /  12.9 km/h 86 % 0.00 in /  0 mm
16:47 67.7 °F /  19.8 °C 63.4 °F /  17.4 °C 29.79 in /  1008.7 hPa WSW 5.0 mph /  8 km/h 9.2 mph /  14.8 km/h 86 % 0.00 in /  0 mm
16:52 67.7 °F /  19.8 °C 63.4 °F /  17.4 °C 29.79 in /  1008.7 hPa SW 1.2 mph /  1.9 km/h 4.0 mph /  6.4 km/h 86 % 0.00 in /  0 mm
16:57 67.8 °F /  19.9 °C 63.8 °F /  17.7 °C 29.80 in /  1009 hPa West 4.1 mph /  6.6 km/h 6.9 mph /  11.1 km/h 87 % 0.00 in /  0 mm
16:59 67.8 °F /  19.9 °C 63.8 °F /  17.7 °C 29.79 in /  1008.7 hPa West 5.4 mph /  8.7 km/h 5.4 mph /  8.7 km/h 87 % 0.00 in /  0 mm
17:04 67.9 °F /  19.9 °C 63.9 °F /  17.7 °C 29.80 in /  1009 hPa West 2.9 mph /  4.7 km/h 3.5 mph /  5.6 km/h 87 % 0.00 in /  0 mm
17:10 68.1 °F /  20.1 °C 64.4 °F /  18 °C 29.79 in /  1008.7 hPa West 1.1 mph /  1.8 km/h 6.9 mph /  11.1 km/h 88 % 0.00 in /  0 mm
17:15 68.3 °F /  20.2 °C 64.3 °F /  17.9 °C 29.80 in /  1009 hPa WSW 2.8 mph /  4.5 km/h 5.8 mph /  9.3 km/h 87 % 0.00 in /  0 mm
17:20 68.3 °F /  20.2 °C 63.9 °F /  17.7 °C 29.80 in /  1009 hPa WSW 3.1 mph /  5 km/h 7.0 mph /  11.3 km/h 86 % 0.00 in /  0 mm
17:25 68.5 °F /  20.3 °C 64.1 °F /  17.8 °C 29.80 in /  1009 hPa WSW 2.1 mph /  3.4 km/h 5.8 mph /  9.3 km/h 86 % 0.00 in /  0 mm
17:30 68.6 °F /  20.3 °C 63.9 °F /  17.7 °C 29.80 in /  1009 hPa WNW 6.5 mph /  10.5 km/h 12.7 mph /  20.4 km/h 85 % 0.00 in /  0 mm
17:35 68.6 °F /  20.3 °C 63.9 °F /  17.7 °C 29.80 in /  1009 hPa WNW 2.3 mph /  3.7 km/h 5.8 mph /  9.3 km/h 85 % 0.00 in /  0 mm
17:40 68.7 °F /  20.4 °C 64.0 °F /  17.8 °C 29.80 in /  1009 hPa SW 3.9 mph /  6.3 km/h 6.0 mph /  9.7 km/h 85 % 0.00 in /  0 mm
17:45 68.7 °F /  20.4 °C 64.0 °F /  17.8 °C 29.80 in /  1009 hPa West 1.7 mph /  2.7 km/h 3.5 mph /  5.6 km/h 85 % 0.00 in /  0 mm
17:50 68.8 °F /  20.4 °C 64.1 °F /  17.8 °C 29.80 in /  1009 hPa WSW 5.4 mph /  8.7 km/h 6.9 mph /  11.1 km/h 85 % 0.00 in /  0 mm
17:55 68.7 °F /  20.4 °C 63.7 °F /  17.6 °C 29.80 in /  1009 hPa West 1.6 mph /  2.6 km/h 3.5 mph /  5.6 km/h 84 % 0.00 in /  0 mm
18:00 68.6 °F /  20.3 °C 63.9 °F /  17.7 °C 29.80 in /  1009 hPa WNW 0.8 mph /  1.3 km/h 2.0 mph /  3.2 km/h 85 % 0.00 in /  0 mm
18:05 68.6 °F /  20.3 °C 63.6 °F /  17.6 °C 29.80 in /  1009 hPa WNW 2.3 mph /  3.7 km/h 3.5 mph /  5.6 km/h 84 % 0.00 in /  0 mm
18:10 68.5 °F /  20.3 °C 63.1 °F /  17.3 °C 29.80 in /  1009 hPa West 1.2 mph /  1.9 km/h 3.5 mph /  5.6 km/h 83 % 0.00 in /  0 mm
18:16 68.4 °F /  20.2 °C 62.7 °F /  17.1 °C 29.80 in /  1009 hPa WNW 3.6 mph /  5.8 km/h 7.0 mph /  11.3 km/h 82 % 0.00 in /  0 mm
18:21 68.3 °F /  20.2 °C 62.6 °F /  17 °C 29.80 in /  1009 hPa WNW 3.0 mph /  4.8 km/h 7.0 mph /  11.3 km/h 82 % 0.00 in /  0 mm
18:26 68.2 °F /  20.1 °C 62.5 °F /  16.9 °C 29.80 in /  1009 hPa West 2.0 mph /  3.2 km/h 6.0 mph /  9.7 km/h 82 % 0.00 in /  0 mm
18:31 68.1 °F /  20.1 °C 62.0 °F /  16.7 °C 29.80 in /  1009 hPa WSW 2.0 mph /  3.2 km/h 8.0 mph /  12.9 km/h 81 % 0.00 in /  0 mm
18:36 68.0 °F /  20 °C 61.9 °F /  16.6 °C 29.81 in /  1009.4 hPa WSW 5.0 mph /  8 km/h 10.0 mph /  16.1 km/h 81 % 0.00 in /  0 mm
18:41 67.9 °F /  19.9 °C 61.9 °F /  16.6 °C 29.81 in /  1009.4 hPa West 1.0 mph /  1.6 km/h 6.0 mph /  9.7 km/h 81 % 0.00 in /  0 mm
18:46 67.8 °F /  19.9 °C 61.8 °F /  16.6 °C 29.81 in /  1009.4 hPa West 3.0 mph /  4.8 km/h 8.0 mph /  12.9 km/h 81 % 0.00 in /  0 mm
18:51 67.7 °F /  19.8 °C 62.0 °F /  16.7 °C 29.81 in /  1009.4 hPa Calm   6.0 mph /  9.7 km/h 82 % 0.00 in /  0 mm
18:56 67.6 °F /  19.8 °C 61.9 °F /  16.6 °C 29.81 in /  1009.4 hPa Calm   6.0 mph /  9.7 km/h 82 % 0.00 in /  0 mm
19:01 67.5 °F /  19.7 °C 61.8 °F /  16.6 °C 29.81 in /  1009.4 hPa WNW 0.6 mph /  1 km/h 1.2 mph /  1.9 km/h 82 % 0.00 in /  0 mm
19:06 67.3 °F /  19.6 °C 61.6 °F /  16.4 °C 29.81 in /  1009.4 hPa West 1.0 mph /  1.6 km/h 5.0 mph /  8 km/h 82 % 0.00 in /  0 mm
19:11 67.2 °F /  19.6 °C 61.5 °F /  16.4 °C 29.82 in /  1009.7 hPa WSW 1.6 mph /  2.6 km/h 1.6 mph /  2.6 km/h 82 % 0.00 in /  0 mm
19:16 67.0 °F /  19.4 °C 61.7 °F /  16.5 °C 29.82 in /  1009.7 hPa Calm   3.5 mph /  5.6 km/h 83 % 0.00 in /  0 mm
19:21 67.0 °F /  19.4 °C 61.7 °F /  16.5 °C 29.82 in /  1009.7 hPa WSW 1.0 mph /  1.6 km/h 3.0 mph /  4.8 km/h 83 % 0.00 in /  0 mm
19:26 66.8 °F /  19.3 °C 61.5 °F /  16.4 °C 29.82 in /  1009.7 hPa Calm     83 % 0.00 in /  0 mm
19:31 66.7 °F /  19.3 °C 61.7 °F /  16.5 °C 29.82 in /  1009.7 hPa Calm   2.0 mph /  3.2 km/h 84 % 0.00 in /  0 mm
19:36 66.6 °F /  19.2 °C 61.6 °F /  16.4 °C 29.82 in /  1009.7 hPa Calm     84 % 0.00 in /  0 mm
19:41 66.4 °F /  19.1 °C 61.4 °F /  16.3 °C 29.82 in /  1009.7 hPa Calm   1.0 mph /  1.6 km/h 84 % 0.00 in /  0 mm
19:46 66.2 °F /  19 °C 61.6 °F /  16.4 °C 29.82 in /  1009.7 hPa Calm     85 % 0.00 in /  0 mm
19:51 66.1 °F /  18.9 °C 61.4 °F /  16.3 °C 29.82 in /  1009.7 hPa Calm     85 % 0.00 in /  0 mm
19:56 65.8 °F /  18.8 °C 61.2 °F /  16.2 °C 29.82 in /  1009.7 hPa Calm   1.0 mph /  1.6 km/h 85 % 0.00 in /  0 mm
20:01 65.6 °F /  18.7 °C 61.3 °F /  16.3 °C 29.82 in /  1009.7 hPa Calm     86 % 0.00 in /  0 mm
20:06 65.4 °F /  18.6 °C 61.1 °F /  16.2 °C 29.83 in /  1010 hPa Calm   1.0 mph /  1.6 km/h 86 % 0.00 in /  0 mm
20:11 65.2 °F /  18.4 °C 61.2 °F /  16.2 °C 29.82 in /  1009.7 hPa Calm   3.5 mph /  5.6 km/h 87 % 0.00 in /  0 mm
20:16 64.9 °F /  18.3 °C 60.9 °F /  16.1 °C 29.82 in /  1009.7 hPa Calm     87 % 0.00 in /  0 mm
20:21 64.8 °F /  18.2 °C 60.8 °F /  16 °C 29.82 in /  1009.7 hPa Calm   1.0 mph /  1.6 km/h 87 % 0.00 in /  0 mm
20:26 64.6 °F /  18.1 °C 60.6 °F /  15.9 °C 29.82 in /  1009.7 hPa Calm   4.0 mph /  6.4 km/h 87 % 0.00 in /  0 mm
20:31 64.4 °F /  18 °C 60.4 °F /  15.8 °C 29.83 in /  1010 hPa WSW 0.5 mph /  0.8 km/h 1.2 mph /  1.9 km/h 87 % 0.00 in /  0 mm
20:36 64.2 °F /  17.9 °C 60.2 °F /  15.7 °C 29.83 in /  1010 hPa Calm   2.0 mph /  3.2 km/h 87 % 0.00 in /  0 mm
20:41 64.1 °F /  17.8 °C 60.1 °F /  15.6 °C 29.83 in /  1010 hPa Calm   2.0 mph /  3.2 km/h 87 % 0.00 in /  0 mm
20:46 63.9 °F /  17.7 °C 60.3 °F /  15.7 °C 29.83 in /  1010 hPa Calm   3.0 mph /  4.8 km/h 88 % 0.00 in /  0 mm
20:51 63.8 °F /  17.7 °C 60.2 °F /  15.7 °C 29.84 in /  1010.4 hPa Calm   3.0 mph /  4.8 km/h 88 % 0.00 in /  0 mm
20:55 63.6 °F /  17.6 °C 60.0 °F /  15.6 °C 29.83 in /  1010 hPa SW 0.8 mph /  1.3 km/h 1.2 mph /  1.9 km/h 88 % 0.00 in /  0 mm
20:58 63.6 °F /  17.6 °C 60.0 °F /  15.6 °C 29.83 in /  1010 hPa SW 0.1 mph /  0.2 km/h 1.2 mph /  1.9 km/h 88 % 0.00 in /  0 mm
21:03 63.4 °F /  17.4 °C 59.8 °F /  15.4 °C 29.83 in /  1010 hPa West 1.2 mph /  1.9 km/h 3.0 mph /  4.8 km/h 88 % 0.00 in /  0 mm
21:08 63.4 °F /  17.4 °C 59.8 °F /  15.4 °C 29.83 in /  1010 hPa Calm   1.2 mph /  1.9 km/h 88 % 0.00 in /  0 mm
21:13 63.4 °F /  17.4 °C 59.8 °F /  15.4 °C 29.83 in /  1010 hPa Calm   1.2 mph /  1.9 km/h 88 % 0.00 in /  0 mm
21:19 63.4 °F /  17.4 °C 59.8 °F /  15.4 °C 29.84 in /  1010.4 hPa WSW 0.4 mph /  0.6 km/h 3.5 mph /  5.6 km/h 88 % 0.00 in /  0 mm
21:24 63.4 °F /  17.4 °C 59.8 °F /  15.4 °C 29.84 in /  1010.4 hPa Calm   2.3 mph /  3.7 km/h 88 % 0.00 in /  0 mm
21:29 63.4 °F /  17.4 °C 59.8 °F /  15.4 °C 29.84 in /  1010.4 hPa Calm   2.3 mph /  3.7 km/h 88 % 0.00 in /  0 mm
21:34 63.4 °F /  17.4 °C 59.8 °F /  15.4 °C 29.84 in /  1010.4 hPa WSW 1.5 mph /  2.4 km/h 4.6 mph /  7.4 km/h 88 % 0.00 in /  0 mm
21:39 63.4 °F /  17.4 °C 59.8 °F /  15.4 °C 29.84 in /  1010.4 hPa SW 4.2 mph /  6.8 km/h 12.7 mph /  20.4 km/h 88 % 0.00 in /  0 mm
21:44 63.4 °F /  17.4 °C 59.8 °F /  15.4 °C 29.84 in /  1010.4 hPa Calm   1.2 mph /  1.9 km/h 88 % 0.00 in /  0 mm
21:49 63.5 °F /  17.5 °C 59.9 °F /  15.5 °C 29.84 in /  1010.4 hPa West 0.4 mph /  0.6 km/h 8.1 mph /  13 km/h 88 % 0.00 in /  0 mm
21:54 63.6 °F /  17.6 °C 60.0 °F /  15.6 °C 29.84 in /  1010.4 hPa WSW 2.8 mph /  4.5 km/h 5.8 mph /  9.3 km/h 88 % 0.00 in /  0 mm
21:59 63.7 °F /  17.6 °C 60.1 °F /  15.6 °C 29.84 in /  1010.4 hPa WSW 1.8 mph /  2.9 km/h 3.5 mph /  5.6 km/h 88 % 0.00 in /  0 mm
22:04 63.8 °F /  17.7 °C 60.2 °F /  15.7 °C 29.84 in /  1010.4 hPa WSW 0.9 mph /  1.4 km/h 3.5 mph /  5.6 km/h 88 % 0.00 in /  0 mm
22:09 63.9 °F /  17.7 °C 60.3 °F /  15.7 °C 29.84 in /  1010.4 hPa Calm   1.2 mph /  1.9 km/h 88 % 0.00 in /  0 mm
22:14 63.9 °F /  17.7 °C 60.0 °F /  15.6 °C 29.84 in /  1010.4 hPa WSW 2.5 mph /  4 km/h 5.8 mph /  9.3 km/h 87 % 0.00 in /  0 mm
22:19 63.9 °F /  17.7 °C 60.0 °F /  15.6 °C 29.84 in /  1010.4 hPa WSW 0.5 mph /  0.8 km/h 3.5 mph /  5.6 km/h 87 % 0.00 in /  0 mm
22:24 64.0 °F /  17.8 °C 60.1 °F /  15.6 °C 29.84 in /  1010.4 hPa West 0.6 mph /  1 km/h 3.5 mph /  5.6 km/h 87 % 0.00 in /  0 mm
22:29 63.9 °F /  17.7 °C 60.0 °F /  15.6 °C 29.84 in /  1010.4 hPa SSW 0.8 mph /  1.3 km/h 3.5 mph /  5.6 km/h 87 % 0.00 in /  0 mm
22:34 63.8 °F /  17.7 °C 59.9 °F /  15.5 °C 29.84 in /  1010.4 hPa WSW 2.0 mph /  3.2 km/h 3.5 mph /  5.6 km/h 87 % 0.00 in /  0 mm
22:39 63.8 °F /  17.7 °C 59.9 °F /  15.5 °C 29.85 in /  1010.7 hPa SW 2.6 mph /  4.2 km/h 4.6 mph /  7.4 km/h 87 % 0.00 in /  0 mm
22:44 63.8 °F /  17.7 °C 60.2 °F /  15.7 °C 29.85 in /  1010.7 hPa WSW 0.6 mph /  1 km/h 2.3 mph /  3.7 km/h 88 % 0.00 in /  0 mm
22:49 63.8 °F /  17.7 °C 60.2 °F /  15.7 °C 29.84 in /  1010.4 hPa SW 2.1 mph /  3.4 km/h 4.6 mph /  7.4 km/h 88 % 0.00 in /  0 mm
22:54 63.8 °F /  17.7 °C 60.2 °F /  15.7 °C 29.85 in /  1010.7 hPa SW 2.9 mph /  4.7 km/h 8.1 mph /  13 km/h 88 % 0.00 in /  0 mm
23:00 63.9 °F /  17.7 °C 60.3 °F /  15.7 °C 29.85 in /  1010.7 hPa WNW 1.7 mph /  2.7 km/h 3.5 mph /  5.6 km/h 88 % 0.00 in /  0 mm
23:05 64.0 °F /  17.8 °C 60.4 °F /  15.8 °C 29.84 in /  1010.4 hPa West 4.0 mph /  6.4 km/h 8.1 mph /  13 km/h 88 % 0.00 in /  0 mm
23:10 64.2 °F /  17.9 °C 60.6 °F /  15.9 °C 29.84 in /  1010.4 hPa West 4.2 mph /  6.8 km/h 10.4 mph /  16.7 km/h 88 % 0.00 in /  0 mm
23:16 64.4 °F /  18 °C 60.4 °F /  15.8 °C 29.85 in /  1010.7 hPa WSW 2.1 mph /  3.4 km/h 9.2 mph /  14.8 km/h 87 % 0.00 in /  0 mm
23:20 64.7 °F /  18.2 °C 60.7 °F /  15.9 °C 29.85 in /  1010.7 hPa SSW 0.3 mph /  0.5 km/h 1.2 mph /  1.9 km/h 87 % 0.00 in /  0 mm
23:25 64.8 °F /  18.2 °C 60.5 °F /  15.8 °C 29.84 in /  1010.4 hPa WSW 3.1 mph /  5 km/h 3.5 mph /  5.6 km/h 86 % 0.00 in /  0 mm
23:30 65.0 °F /  18.3 °C 60.7 °F /  15.9 °C 29.84 in /  1010.4 hPa WSW 3.4 mph /  5.5 km/h 8.1 mph /  13 km/h 86 % 0.00 in /  0 mm
23:35 65.0 °F /  18.3 °C 60.7 °F /  15.9 °C 29.84 in /  1010.4 hPa West 0.3 mph /  0.5 km/h 2.3 mph /  3.7 km/h 86 % 0.00 in /  0 mm
23:40 65.1 °F /  18.4 °C 60.5 °F /  15.8 °C 29.84 in /  1010.4 hPa WSW 3.0 mph /  4.8 km/h 6.9 mph /  11.1 km/h 85 % 0.00 in /  0 mm
23:45 65.1 °F /  18.4 °C 60.5 °F /  15.8 °C 29.84 in /  1010.4 hPa SW 1.9 mph /  3.1 km/h 3.5 mph /  5.6 km/h 85 % 0.00 in /  0 mm
23:50 65.1 °F /  18.4 °C 60.1 °F /  15.6 °C 29.85 in /  1010.7 hPa WSW 2.8 mph /  4.5 km/h 6.9 mph /  11.1 km/h 84 % 0.00 in /  0 mm
23:55 65.1 °F /  18.4 °C 60.1 °F /  15.6 °C 29.85 in /  1010.7 hPa WSW 1.4 mph /  2.3 km/h 3.5 mph /  5.6 km/h 84 % 0.00 in /  0 mm
Crab Meadow Weather
Compliments of Weather Underground - 3 mb

Script developed by  Jim McMurry - jmcmurry@mwt.net Adapted for the template by  Wim van der Kuil - Leuven-Template.eu

Lightning: Lightning's return stroke is hotter than the surface of the sun. Lightning is 50,000 degrees F. The sun is about 11,000 degrees F.